createdAt,value
2023-02-13T00:00:13.409Z,97801.34
2023-02-13T00:02:39.941Z,97809.44
2023-02-13T00:05:07.195Z,97805.84
2023-02-13T00:07:33.654Z,97808.25
2023-02-13T00:10:00.137Z,97782.66
2023-02-13T00:12:26.658Z,97812.38
2023-02-13T00:14:53.974Z,97740.31
2023-02-13T00:17:20.471Z,97784.84
2023-02-13T00:19:46.896Z,97781.72
2023-02-13T00:22:13.398Z,97789.44
2023-02-13T00:24:39.969Z,97783.94
2023-02-13T00:27:06.395Z,97784.31
2023-02-13T00:29:33.629Z,97746.69
2023-02-13T00:32:01.352Z,97742.38
2023-02-13T00:34:28.247Z,97750.69
2023-02-13T00:36:54.844Z,97764.59
2023-02-13T00:39:21.390Z,97754.88
2023-02-13T00:41:48.317Z,97725.69
2023-02-13T00:44:14.975Z,97780.63
2023-02-13T00:46:41.427Z,97728.84
2023-02-13T00:49:07.883Z,97746.47
2023-02-13T00:51:34.591Z,97777.19
2023-02-13T00:54:01.286Z,97753.72
2023-02-13T00:56:28.038Z,97758.09
2023-02-13T00:58:54.669Z,97765.22
2023-02-13T01:01:21.709Z,97741.16
2023-02-13T01:03:48.255Z,97773.47
2023-02-13T01:06:14.757Z,97742.53
2023-02-13T01:08:43.854Z,97746.91
2023-02-13T01:11:10.323Z,97783.94
2023-02-13T01:13:37.151Z,97785.63
2023-02-13T01:16:03.784Z,97753.69
2023-02-13T01:18:30.355Z,97743.28
2023-02-13T01:21:06.425Z,97733.41
2023-02-13T01:23:38.050Z,97778.59
2023-02-13T01:26:06.304Z,97777.66
2023-02-13T01:28:33.471Z,97771.25
2023-02-13T01:31:00.541Z,97769.13
2023-02-13T01:33:28.764Z,97774.53
2023-02-13T01:35:55.274Z,97778.66
2023-02-13T01:38:21.902Z,97715.84
2023-02-13T01:40:53.909Z,97778.44
2023-02-13T01:43:23.363Z,97682.06
2023-02-13T01:45:55.044Z,97776.03
2023-02-13T01:48:24.796Z,97766.69
2023-02-13T01:50:58.320Z,97772.25
2023-02-13T01:53:33.437Z,97735.09
2023-02-13T01:56:05.365Z,97743.09
2023-02-13T01:58:35.964Z,97757.78
2023-02-13T02:01:04.489Z,97748.31
2023-02-13T02:03:36.952Z,97675.53
2023-02-13T02:06:13.218Z,97759.88
2023-02-13T02:08:39.858Z,97762.41
2023-02-13T02:11:24.088Z,97751.53
2023-02-13T02:13:51.173Z,97734.44
2023-02-13T02:16:32.132Z,97738.25
2023-02-13T02:19:03.403Z,97785.72
2023-02-13T02:21:59.522Z,97780.72
2023-02-13T02:24:58.733Z,97766.69
2023-02-13T02:27:44.448Z,97784.00
2023-02-13T02:30:30.821Z,97779.91
2023-02-13T02:33:07.318Z,97752.69
2023-02-13T02:35:49.036Z,97782.50
2023-02-13T02:38:39.161Z,97762.72
2023-02-13T02:41:45.597Z,97761.25
2023-02-13T02:44:38.720Z,97782.59
2023-02-13T02:47:36.964Z,97782.59
2023-02-13T02:50:17.376Z,97787.19
2023-02-13T02:52:43.754Z,97789.31
2023-02-13T02:55:31.551Z,97745.91
2023-02-13T02:58:25.734Z,97787.94
2023-02-13T03:01:16.917Z,97763.16
2023-02-13T03:04:03.068Z,97740.00
2023-02-13T03:06:40.212Z,97747.16
2023-02-13T03:09:30.811Z,97760.22
2023-02-13T03:12:16.819Z,97755.47
2023-02-13T03:14:44.391Z,97776.16
2023-02-13T03:17:35.677Z,97720.75
2023-02-13T03:20:30.412Z,97772.09
2023-02-13T03:23:20.606Z,97778.44
2023-02-13T03:26:33.220Z,97780.28
2023-02-13T03:29:39.538Z,97761.13
2023-02-13T03:32:18.459Z,97780.06
2023-02-13T03:35:13.168Z,97764.44
2023-02-13T03:37:56.447Z,97771.78
2023-02-13T03:41:00.723Z,97789.00
2023-02-13T03:43:32.891Z,97754.44
2023-02-13T03:46:02.435Z,97769.56
2023-02-13T03:48:56.872Z,97795.13
2023-02-13T03:51:37.333Z,97774.88
2023-02-13T03:54:12.468Z,97762.75
2023-02-13T03:57:00.553Z,97786.81
2023-02-13T03:59:33.758Z,97767.50
2023-02-13T04:02:24.130Z,97787.03
2023-02-13T04:04:58.990Z,97767.19
2023-02-13T04:07:32.176Z,97781.22
2023-02-13T04:10:10.583Z,97760.91
2023-02-13T04:12:51.115Z,97792.63
2023-02-13T04:15:34.476Z,97765.84
2023-02-13T04:18:22.259Z,97799.97
2023-02-13T04:20:49.036Z,97773.78
2023-02-13T04:23:15.852Z,97794.34
2023-02-13T04:25:48.656Z,97717.03
2023-02-13T04:28:15.243Z,97717.50
2023-02-13T04:30:42.239Z,97795.44
2023-02-13T04:33:08.964Z,97738.94
2023-02-13T04:35:35.542Z,97777.44
2023-02-13T04:38:02.329Z,97786.16
2023-02-13T04:40:29.035Z,97769.41
2023-02-13T04:42:55.764Z,97760.88
2023-02-13T04:45:22.388Z,97756.75
2023-02-13T04:47:53.904Z,97766.28
2023-02-13T04:50:23.828Z,97779.63
2023-02-13T04:52:55.588Z,97785.03
2023-02-13T04:55:47.516Z,97792.75
2023-02-13T04:58:13.946Z,97781.94
2023-02-13T05:00:40.470Z,97790.03
2023-02-13T05:03:09.399Z,97796.50
2023-02-13T05:05:36.234Z,97788.34
2023-02-13T05:08:02.762Z,97777.25
2023-02-13T05:10:29.610Z,97776.69
2023-02-13T05:12:56.346Z,97785.03
2023-02-13T05:15:23.730Z,97786.56
2023-02-13T05:17:50.608Z,97797.06
2023-02-13T05:20:18.503Z,97785.63
2023-02-13T05:23:05.218Z,97800.94
2023-02-13T05:25:32.417Z,97799.94
2023-02-13T05:27:58.921Z,97794.28
2023-02-13T05:30:25.456Z,97784.84
2023-02-13T05:32:52.288Z,97786.59
2023-02-13T05:35:19.388Z,97789.91
2023-02-13T05:37:45.843Z,97790.25
2023-02-13T05:40:13.442Z,97787.84
2023-02-13T05:42:41.271Z,97791.94
2023-02-13T05:45:08.830Z,97799.13
2023-02-13T05:47:35.956Z,97800.09
2023-02-13T05:50:02.440Z,97793.16
2023-02-13T05:52:28.906Z,97798.81
2023-02-13T05:54:55.325Z,97802.81
2023-02-13T05:57:21.847Z,97804.19
2023-02-13T05:59:48.314Z,97807.06
2023-02-13T06:02:15.191Z,97789.81
2023-02-13T06:04:42.162Z,97809.44
2023-02-13T06:07:08.586Z,97808.75
2023-02-13T06:09:35.080Z,97813.72
2023-02-13T06:12:01.523Z,97821.94
2023-02-13T06:14:27.983Z,97813.34
2023-02-13T06:16:54.474Z,97811.28
2023-02-13T06:19:20.966Z,97806.69
2023-02-13T06:21:47.393Z,97812.94
2023-02-13T06:24:13.839Z,97818.44
2023-02-13T06:26:40.284Z,97820.91
2023-02-13T06:29:06.880Z,97832.44
2023-02-13T06:31:33.480Z,97823.22
2023-02-13T06:33:59.988Z,97819.28
2023-02-13T06:36:26.550Z,97824.94
2023-02-13T06:38:52.983Z,97828.75
2023-02-13T06:41:19.578Z,97815.75
2023-02-13T06:43:46.009Z,97831.19
2023-02-13T06:46:12.464Z,97833.50
2023-02-13T06:48:39.026Z,97839.22
2023-02-13T06:51:05.707Z,97827.72
2023-02-13T06:53:32.159Z,97845.22
2023-02-13T06:55:58.594Z,97846.44
2023-02-13T06:58:26.248Z,97859.75
2023-02-13T07:00:53.211Z,97859.97
2023-02-13T07:03:19.777Z,97859.16
2023-02-13T07:05:46.450Z,97854.63
2023-02-13T07:08:13.541Z,97851.25
2023-02-13T07:10:41.434Z,97849.84
2023-02-13T07:13:08.693Z,97856.06
2023-02-13T07:15:36.088Z,97869.56
2023-02-13T07:18:03.761Z,97859.56
2023-02-13T07:20:30.428Z,97865.50
2023-02-13T07:23:01.329Z,97865.91
2023-02-13T07:25:28.618Z,97871.84
2023-02-13T07:27:55.179Z,97878.78
2023-02-13T07:30:21.774Z,97865.22
2023-02-13T07:32:48.319Z,97872.44
2023-02-13T07:35:14.919Z,97880.09
2023-02-13T07:37:41.780Z,97872.53
2023-02-13T07:40:08.959Z,97870.72
2023-02-13T07:42:35.512Z,97885.97
2023-02-13T07:45:05.487Z,97891.91
2023-02-13T07:47:33.725Z,97885.97
2023-02-13T07:50:00.199Z,97878.91
2023-02-13T07:52:26.739Z,97902.78
2023-02-13T07:54:53.169Z,97879.47
2023-02-13T07:57:19.665Z,97895.19
2023-02-13T07:59:46.113Z,97905.25
2023-02-13T08:02:14.242Z,97911.38
2023-02-13T08:04:41.598Z,97911.44
2023-02-13T08:07:08.075Z,97915.31
2023-02-13T08:09:53.390Z,97905.59
2023-02-13T08:12:19.889Z,97897.88
2023-02-13T08:14:46.325Z,97917.41
2023-02-13T08:17:13.260Z,97906.53
2023-02-13T08:19:39.862Z,97903.25
2023-02-13T08:22:06.436Z,97888.44
2023-02-13T08:24:33.611Z,97884.56
2023-02-13T08:27:00.056Z,97897.00
2023-02-13T08:29:26.508Z,97891.34
2023-02-13T08:31:52.996Z,97883.47
2023-02-13T08:34:19.574Z,97893.56
2023-02-13T08:36:46.048Z,97888.69
2023-02-13T08:39:12.641Z,97889.31
2023-02-13T08:41:39.234Z,97894.53
2023-02-13T08:44:05.680Z,97887.91
2023-02-13T08:46:32.293Z,97888.00
2023-02-13T08:48:59.039Z,97893.81
2023-02-13T08:51:25.497Z,97905.94
2023-02-13T08:53:51.956Z,97899.34
2023-02-13T08:56:18.498Z,97892.34
2023-02-13T08:58:48.782Z,97889.56
2023-02-13T09:01:16.043Z,97907.44
2023-02-13T09:03:42.580Z,97896.91
2023-02-13T09:06:09.038Z,97908.72
2023-02-13T09:08:36.222Z,97912.41
2023-02-13T09:11:05.609Z,97909.53
2023-02-13T09:13:34.364Z,97901.53
2023-02-13T09:16:02.460Z,97898.56
2023-02-13T09:18:29.179Z,97912.25
2023-02-13T09:21:05.028Z,97903.47
2023-02-13T09:23:34.162Z,97915.88
2023-02-13T09:26:05.865Z,97916.03
2023-02-13T09:28:34.033Z,97925.72
2023-02-13T09:31:08.601Z,97915.09
2023-02-13T09:33:36.014Z,97910.16
2023-02-13T09:36:14.873Z,97924.72
2023-02-13T09:38:44.031Z,97915.34
2023-02-13T09:41:21.694Z,97920.16
2023-02-13T09:44:06.285Z,97904.88
2023-02-13T09:46:38.519Z,97902.81
2023-02-13T09:49:14.305Z,97904.63
2023-02-13T09:51:43.995Z,97906.34
2023-02-13T09:54:16.369Z,97908.50
2023-02-13T09:56:50.063Z,97917.47
2023-02-13T09:59:48.734Z,97919.00
2023-02-13T10:02:45.784Z,97927.97
2023-02-13T10:05:21.524Z,97925.38
2023-02-13T10:08:05.695Z,97926.19
2023-02-13T10:10:52.518Z,97908.69
2023-02-13T10:14:00.052Z,97912.56
2023-02-13T10:16:45.427Z,97918.53
2023-02-13T10:19:46.902Z,97924.06
2023-02-13T10:22:20.529Z,97907.44
2023-02-13T10:24:55.966Z,97903.50
2023-02-13T10:27:25.596Z,97914.56
2023-02-13T10:30:06.825Z,97920.47
2023-02-13T10:32:49.547Z,97915.34
2023-02-13T10:35:29.997Z,97907.00
2023-02-13T10:37:59.514Z,97917.63
2023-02-13T10:40:37.654Z,97902.72
2023-02-13T10:43:16.270Z,97909.38
2023-02-13T10:46:01.753Z,97916.00
2023-02-13T10:48:48.491Z,97908.56
2023-02-13T10:51:27.275Z,97901.47
2023-02-13T10:54:16.380Z,97902.16
2023-02-13T10:56:58.146Z,97910.25
2023-02-13T10:59:30.803Z,97910.91
2023-02-13T11:02:07.146Z,97895.00
2023-02-13T11:04:33.613Z,97899.38
2023-02-13T11:07:05.937Z,97891.22
2023-02-13T11:09:39.886Z,97883.75
2023-02-13T11:12:26.688Z,97888.50
2023-02-13T11:15:01.706Z,97863.78
2023-02-13T11:17:35.829Z,97888.88
2023-02-13T11:20:27.282Z,97870.44
2023-02-13T11:22:55.103Z,97876.81
2023-02-13T11:25:25.456Z,97861.34
2023-02-13T11:28:07.778Z,97870.53
2023-02-13T11:30:38.583Z,97882.03
2023-02-13T11:33:20.902Z,97878.44
2023-02-13T11:35:48.054Z,97882.44
2023-02-13T11:38:20.517Z,97878.25
2023-02-13T11:41:14.241Z,97868.63
2023-02-13T11:43:48.406Z,97877.09
2023-02-13T11:46:21.887Z,97883.31
2023-02-13T11:49:13.449Z,97888.03
2023-02-13T11:51:44.230Z,97873.41
2023-02-13T11:54:28.870Z,97880.50
2023-02-13T11:57:07.347Z,97890.22
2023-02-13T11:59:40.969Z,97881.50
2023-02-13T12:02:20.936Z,97883.47
2023-02-13T12:04:50.508Z,97890.44
2023-02-13T12:07:24.785Z,97884.28
2023-02-13T12:10:02.851Z,97890.28
2023-02-13T12:12:35.650Z,97877.00
2023-02-13T12:15:19.124Z,97877.38
2023-02-13T12:17:50.475Z,97872.56
2023-02-13T12:20:17.994Z,97880.41
2023-02-13T12:22:59.576Z,97872.19
2023-02-13T12:25:48.339Z,97879.41
2023-02-13T12:28:26.973Z,97869.00
2023-02-13T12:31:05.506Z,97862.81
2023-02-13T12:34:08.997Z,97870.09
2023-02-13T12:36:44.510Z,97862.06
2023-02-13T12:39:33.195Z,97851.00
2023-02-13T12:42:24.246Z,97856.94
2023-02-13T12:45:25.472Z,97852.53
2023-02-13T12:48:26.859Z,97839.59
2023-02-13T12:51:18.234Z,97851.00
2023-02-13T12:54:12.603Z,97853.31
2023-02-13T12:56:54.324Z,97833.75
2023-02-13T12:59:42.137Z,97836.88
2023-02-13T13:02:44.288Z,97841.25
2023-02-13T13:05:40.228Z,97839.09
2023-02-13T13:08:31.952Z,97829.31
2023-02-13T13:11:29.053Z,97833.75
2023-02-13T13:14:09.322Z,97827.28
2023-02-13T13:16:52.125Z,97837.50
2023-02-13T13:19:38.273Z,97843.81
2023-02-13T13:22:17.229Z,97855.69
2023-02-13T13:24:55.712Z,97836.53
2023-02-13T13:27:27.259Z,97845.63
2023-02-13T13:30:05.954Z,97849.31
2023-02-13T13:32:33.160Z,97839.50
2023-02-13T13:34:59.914Z,97846.34
2023-02-13T13:37:39.058Z,97856.50
2023-02-13T13:40:37.111Z,97857.69
2023-02-13T13:43:31.496Z,97842.88
2023-02-13T13:46:30.184Z,97842.94
2023-02-13T13:49:00.204Z,97848.81
2023-02-13T13:51:27.126Z,97849.78
2023-02-13T13:54:05.708Z,97863.00
2023-02-13T13:56:54.015Z,97862.19
2023-02-13T13:59:51.414Z,97837.47
2023-02-13T14:02:17.865Z,97854.28
2023-02-13T14:05:18.628Z,97847.28
2023-02-13T14:07:47.524Z,97851.56
2023-02-13T14:10:34.205Z,97845.28
2023-02-13T14:13:03.005Z,97839.38
2023-02-13T14:15:38.664Z,97840.28
2023-02-13T14:18:21.550Z,97846.41
2023-02-13T14:20:50.915Z,97849.31
2023-02-13T14:23:27.188Z,97843.47
2023-02-13T14:26:19.715Z,97831.66
2023-02-13T14:28:48.888Z,97841.69
2023-02-13T14:31:31.694Z,97838.63
2023-02-13T14:34:15.024Z,97843.78
2023-02-13T14:36:45.561Z,97834.78
2023-02-13T14:39:35.442Z,97813.75
2023-02-13T14:42:04.256Z,97839.63
2023-02-13T14:44:39.781Z,97808.38
2023-02-13T14:47:22.154Z,97831.38
2023-02-13T14:49:50.451Z,97805.31
2023-02-13T14:52:21.982Z,97836.31
2023-02-13T14:54:55.802Z,97827.94
2023-02-13T14:57:37.868Z,97833.44
2023-02-13T15:00:20.802Z,97820.41
2023-02-13T15:02:53.995Z,97820.59
2023-02-13T15:05:21.421Z,97819.59
2023-02-13T15:07:53.733Z,97792.84
2023-02-13T15:10:49.947Z,97828.66
2023-02-13T15:13:20.636Z,97821.03
2023-02-13T15:15:56.503Z,97828.75
2023-02-13T15:18:30.262Z,97821.13
2023-02-13T15:21:00.159Z,97819.50
2023-02-13T15:23:32.715Z,97818.44
2023-02-13T15:26:05.596Z,97825.88
2023-02-13T15:28:33.206Z,97827.66
2023-02-13T15:31:20.035Z,97816.25
2023-02-13T15:33:48.827Z,97792.28
2023-02-13T15:36:18.858Z,97816.69
2023-02-13T15:38:45.406Z,97797.59
2023-02-13T15:41:22.694Z,97796.75
2023-02-13T15:43:53.206Z,97806.94
2023-02-13T15:46:33.343Z,97817.88
2023-02-13T15:49:24.190Z,97809.91
2023-02-13T15:51:51.162Z,97790.31
2023-02-13T15:54:33.004Z,97796.72
2023-02-13T15:57:03.996Z,97815.84
2023-02-13T15:59:39.170Z,97828.41
2023-02-13T16:02:13.952Z,97832.69
2023-02-13T16:04:41.515Z,97821.84
2023-02-13T16:07:12.312Z,97815.91
2023-02-13T16:09:39.269Z,97816.06
2023-02-13T16:12:17.292Z,97832.31
2023-02-13T16:15:02.279Z,97817.41
2023-02-13T16:17:34.871Z,97809.16
2023-02-13T16:20:18.874Z,97823.72
2023-02-13T16:22:48.977Z,97816.63
2023-02-13T16:25:32.953Z,97832.59
2023-02-13T16:28:05.784Z,97827.56
2023-02-13T16:30:43.500Z,97839.53
2023-02-13T16:33:22.797Z,97831.63
2023-02-13T16:35:56.683Z,97831.78
2023-02-13T16:38:38.520Z,97831.41
2023-02-13T16:41:17.144Z,97843.03
2023-02-13T16:44:05.639Z,97835.06
2023-02-13T16:46:39.857Z,97846.41
2023-02-13T16:49:09.592Z,97844.69
2023-02-13T16:51:54.624Z,97845.13
2023-02-13T16:54:27.398Z,97849.03
2023-02-13T16:56:55.763Z,97838.50
2023-02-13T16:59:40.921Z,97852.94
2023-02-13T17:02:21.156Z,97847.41
2023-02-13T17:04:58.392Z,97841.91
2023-02-13T17:07:35.215Z,97849.28
2023-02-13T17:10:06.483Z,97832.94
2023-02-13T17:12:37.566Z,97841.53
2023-02-13T17:15:05.761Z,97820.19
2023-02-13T17:17:32.815Z,97849.28
2023-02-13T17:19:59.469Z,97842.88
2023-02-13T17:22:34.231Z,97845.75
2023-02-13T17:25:02.242Z,97846.06
2023-02-13T17:27:28.702Z,97840.22
2023-02-13T17:29:55.247Z,97861.31
2023-02-13T17:32:25.502Z,97856.38
2023-02-13T17:34:52.351Z,97850.97
2023-02-13T17:37:27.106Z,97843.38
2023-02-13T17:39:54.428Z,97860.16
2023-02-13T17:42:26.774Z,97842.50
2023-02-13T17:44:55.253Z,97846.56
2023-02-13T17:47:22.826Z,97839.53
2023-02-13T17:49:49.932Z,97837.84
2023-02-13T17:52:22.570Z,97828.03
2023-02-13T17:54:49.111Z,97844.91
2023-02-13T17:57:17.792Z,97815.19
2023-02-13T17:59:44.787Z,97834.91
2023-02-13T18:02:17.926Z,97836.72
2023-02-13T18:04:44.894Z,97824.59
2023-02-13T18:07:13.556Z,97830.78
2023-02-13T18:09:40.233Z,97834.72
2023-02-13T18:12:08.378Z,97842.81
2023-02-13T18:14:34.898Z,97835.78
2023-02-13T18:17:01.409Z,97833.00
2023-02-13T18:19:28.125Z,97840.44
2023-02-13T18:21:54.594Z,97840.75
2023-02-13T18:24:21.088Z,97841.22
2023-02-13T18:26:47.666Z,97830.38
2023-02-13T18:29:14.146Z,97812.63
2023-02-13T18:31:40.705Z,97829.47
2023-02-13T18:34:07.315Z,97834.50
2023-02-13T18:36:33.858Z,97834.38
2023-02-13T18:39:00.357Z,97834.50
2023-02-13T18:41:26.811Z,97827.28
2023-02-13T18:43:56.792Z,97824.66
2023-02-13T18:46:23.786Z,97806.19
2023-02-13T18:48:50.246Z,97820.81
2023-02-13T18:51:16.705Z,97823.56
2023-02-13T18:53:43.135Z,97830.03
2023-02-13T18:56:11.533Z,97832.16
2023-02-13T18:58:38.150Z,97835.50
2023-02-13T19:01:08.707Z,97846.19
2023-02-13T19:03:37.058Z,97839.50
2023-02-13T19:06:08.187Z,97827.28
2023-02-13T19:08:35.922Z,97840.75
2023-02-13T19:11:04.350Z,97836.91
2023-02-13T19:13:31.928Z,97828.09
2023-02-13T19:16:06.633Z,97837.19
2023-02-13T19:18:36.529Z,97823.25
2023-02-13T19:21:03.788Z,97843.97
2023-02-13T19:23:30.711Z,97843.88
2023-02-13T19:25:57.587Z,97841.44
2023-02-13T19:28:24.911Z,97846.75
2023-02-13T19:30:51.503Z,97838.09
2023-02-13T19:33:17.972Z,97831.59
2023-02-13T19:35:44.408Z,97826.75
2023-02-13T19:38:11.043Z,97808.69
2023-02-13T19:40:37.736Z,97821.75
2023-02-13T19:43:04.295Z,97811.38
2023-02-13T19:45:30.773Z,97823.09
2023-02-13T19:47:57.266Z,97830.19
2023-02-13T19:50:23.710Z,97824.72
2023-02-13T19:52:51.863Z,97839.97
2023-02-13T19:55:19.992Z,97841.00
2023-02-13T19:57:46.418Z,97830.38
2023-02-13T20:00:13.427Z,97838.19
2023-02-13T20:02:40.217Z,97839.69
2023-02-13T20:05:08.469Z,97843.09
2023-02-13T20:07:35.073Z,97827.13
2023-02-13T20:10:01.511Z,97830.22
2023-02-13T20:12:27.937Z,97836.13
2023-02-13T20:14:55.568Z,97846.84
2023-02-13T20:17:22.824Z,97841.03
2023-02-13T20:19:51.431Z,97852.59
2023-02-13T20:22:18.816Z,97843.84
2023-02-13T20:24:47.089Z,97840.94
2023-02-13T20:27:14.519Z,97838.34
2023-02-13T20:29:41.886Z,97843.91
2023-02-13T20:32:08.661Z,97834.66
2023-02-13T20:34:44.402Z,97825.41
2023-02-13T20:37:22.226Z,97829.94
2023-02-13T20:39:49.284Z,97837.09
2023-02-13T20:42:16.660Z,97840.28
2023-02-13T20:44:44.481Z,97832.47
2023-02-13T20:47:11.367Z,97833.19
2023-02-13T20:49:38.132Z,97845.06
2023-02-13T20:52:05.680Z,97852.69
2023-02-13T20:54:32.728Z,97852.69
2023-02-13T20:56:59.723Z,97842.94
2023-02-13T20:59:26.363Z,97843.28
2023-02-13T21:01:52.825Z,97836.50
2023-02-13T21:04:20.541Z,97832.56
2023-02-13T21:06:48.213Z,97854.81
2023-02-13T21:09:15.749Z,97844.63
2023-02-13T21:11:43.919Z,97843.28
2023-02-13T21:14:12.210Z,97837.59
2023-02-13T21:16:40.352Z,97812.50
2023-02-13T21:19:09.855Z,97849.13
2023-02-13T21:21:37.340Z,97832.16
2023-02-13T21:24:11.072Z,97833.63
2023-02-13T21:26:37.697Z,97847.91
2023-02-13T21:29:06.041Z,97847.59
2023-02-13T21:31:38.568Z,97840.94
2023-02-13T21:34:08.543Z,97826.47
2023-02-13T21:36:37.944Z,97835.22
2023-02-13T21:39:06.285Z,97812.50
2023-02-13T21:41:33.836Z,97802.81
2023-02-13T21:44:00.281Z,97809.56
2023-02-13T21:46:29.797Z,97813.19
2023-02-13T21:48:58.339Z,97798.94
2023-02-13T21:51:26.448Z,97804.44
2023-02-13T21:53:53.962Z,97804.41
2023-02-13T21:56:26.658Z,97802.66
2023-02-13T21:58:54.419Z,97779.66
2023-02-13T22:01:26.979Z,97793.41
2023-02-13T22:04:00.792Z,97801.34
2023-02-13T22:06:29.614Z,97790.94
2023-02-13T22:08:58.281Z,97782.41
2023-02-13T22:11:25.304Z,97782.72
2023-02-13T22:13:56.558Z,97770.81
2023-02-13T22:16:23.858Z,97779.09
2023-02-13T22:18:50.643Z,97772.00
2023-02-13T22:21:19.705Z,97765.22
2023-02-13T22:23:47.522Z,97769.91
2023-02-13T22:26:28.719Z,97775.16
2023-02-13T22:28:58.267Z,97764.03
2023-02-13T22:31:25.948Z,97766.75
2023-02-13T22:34:02.898Z,97770.16
2023-02-13T22:36:31.817Z,97749.50
2023-02-13T22:38:58.302Z,97755.94
2023-02-13T22:41:26.715Z,97749.19
2023-02-13T22:43:53.440Z,97764.41
2023-02-13T22:46:29.172Z,97776.09
2023-02-13T22:48:56.600Z,97755.06
2023-02-13T22:51:28.509Z,97767.00
2023-02-13T22:53:59.282Z,97755.06
2023-02-13T22:56:27.777Z,97778.75
2023-02-13T22:58:54.302Z,97767.84
2023-02-13T23:01:22.495Z,97784.88
2023-02-13T23:03:49.725Z,97782.69
2023-02-13T23:06:17.141Z,97774.41
2023-02-13T23:08:43.999Z,97764.50
2023-02-13T23:11:35.187Z,97772.59
2023-02-13T23:14:01.786Z,97777.41
2023-02-13T23:16:28.742Z,97782.09
2023-02-13T23:18:56.933Z,97792.00
2023-02-13T23:21:24.579Z,97784.56
2023-02-13T23:23:51.489Z,97799.00
2023-02-13T23:26:18.734Z,97790.59
2023-02-13T23:28:45.268Z,97796.75
2023-02-13T23:31:11.853Z,97786.53
2023-02-13T23:33:38.392Z,97796.91
2023-02-13T23:36:05.256Z,97777.47
2023-02-13T23:38:31.752Z,97788.88
2023-02-13T23:41:06.191Z,97772.72
2023-02-13T23:43:32.946Z,97767.38
2023-02-13T23:45:59.413Z,97764.00
2023-02-13T23:48:25.910Z,97769.34
2023-02-13T23:50:53.156Z,97764.00
2023-02-13T23:53:19.596Z,97764.97
2023-02-13T23:55:47.087Z,97766.88
2023-02-13T23:58:13.511Z,97749.06
